Time;durP1;ratioP1;P1;durP2;ratioP2;P2;SDS_P1;SDS_P2;PMS_P1;PMS_P2;Temp;Humidity;BMP_temperature;BMP_pressure;BME280_temperature;BME280_humidity;BME280_pressure;Samples;Min_cycle;Max_cycle;Signal;HPM_P1;HPM_P2
2022/09/03 00:00:10;;;;;;;2.07;1.43;;;18.50;86.00;;;;;;5019450;28;20429;-85
2022/09/03 00:03:00;;;;;;;2.57;1.30;;;18.50;86.50;;;;;;4986551;28;20444;-86
2022/09/03 00:05:44;;;;;;;2.23;1.20;;;18.50;86.20;;;;;;5020555;28;20536;-86
2022/09/03 00:08:44;;;;;;;3.30;1.47;;;18.50;84.90;;;;;;5021822;28;20527;-85
2022/09/03 00:11:42;;;;;;;2.07;1.50;;;18.50;85.80;;;;;;5005775;28;20450;-84
2022/09/03 00:14:18;;;;;;;1.70;1.30;;;18.50;85.20;;;;;;4964705;28;20428;-85
2022/09/03 00:16:50;;;;;;;1.87;1.43;;;18.50;85.80;;;;;;5018344;28;20568;-84
2022/09/03 00:19:21;;;;;;;1.40;1.00;;;18.40;85.70;;;;;;5001573;28;20428;-85
2022/09/03 00:21:58;;;;;;;2.60;1.57;;;18.40;85.50;;;;;;5017125;28;20417;-85
2022/09/03 00:24:28;;;;;;;2.00;1.80;;;18.50;85.70;;;;;;5014869;28;20472;-85
2022/09/03 00:26:59;;;;;;;1.67;1.50;;;18.60;84.40;;;;;;5003929;28;21056;-85
2022/09/03 00:29:36;;;;;;;3.10;1.80;;;18.50;85.20;;;;;;5001967;28;20522;-84
2022/09/03 00:32:12;;;;;;;3.57;1.43;;;18.50;85.20;;;;;;5019084;28;21500;-84
2022/09/03 00:34:42;;;;;;;2.07;1.27;;;18.50;85.40;;;;;;5002015;28;20969;-83
2022/09/03 00:37:09;;;;;;;2.00;1.40;;;18.50;85.50;;;;;;4997921;28;20465;-84
2022/09/03 00:39:35;;;;;;;2.10;1.40;;;18.50;85.50;;;;;;5003515;28;20469;-83
2022/09/03 00:42:30;;;;;;;4.40;1.43;;;18.60;85.60;;;;;;5000324;28;20443;-85
2022/09/03 00:45:45;;;;;;;4.70;1.97;;;18.40;85.00;;;;;;4997528;28;20448;-85
2022/09/03 00:48:25;;;;;;;1.30;1.20;;;18.40;85.70;;;;;;4950505;28;20525;-83
2022/09/03 00:51:17;;;;;;;2.40;1.43;;;18.50;85.90;;;;;;5009776;28;20460;-85
2022/09/03 00:54:09;;;;;;;2.53;1.93;;;18.50;86.10;;;;;;4998246;28;20448;-85
2022/09/03 00:56:46;;;;;;;3.70;1.63;;;18.40;86.20;;;;;;5007986;28;20906;-85
2022/09/03 00:59:46;;;;;;;2.30;1.40;;;18.40;87.00;;;;;;5001947;28;20961;-86
2022/09/03 01:02:55;;;;;;;1.40;1.30;;;18.40;87.20;;;;;;5012612;28;20971;-85
2022/09/03 01:05:21;;;;;;;1.93;1.40;;;18.40;87.20;;;;;;4973038;28;20465;-84
2022/09/03 01:08:14;;;;;;;2.40;1.53;;;18.30;87.40;;;;;;4997372;28;20460;-88
2022/09/03 01:11:19;;;;;;;2.50;1.77;;;18.10;87.90;;;;;;5000605;28;20462;-89
2022/09/03 01:13:55;;;;;;;1.40;1.10;;;18.10;88.80;;;;;;4956918;28;20523;-85
2022/09/03 01:16:46;;;;;;;1.70;1.30;;;18.00;89.40;;;;;;5012178;28;20453;-86
2022/09/03 01:19:50;;;;;;;1.87;1.60;;;18.00;89.70;;;;;;4997834;28;20458;-91
2022/09/03 01:22:41;;;;;;;1.50;1.40;;;18.00;89.50;;;;;;5011197;28;20511;-84
2022/09/03 01:25:13;;;;;;;2.13;1.73;;;18.00;89.60;;;;;;4992744;28;20783;-83
2022/09/03 01:28:09;;;;;;;1.97;1.53;;;18.00;90.10;;;;;;4993260;28;20660;-84
2022/09/03 01:30:40;;;;;;;3.23;1.40;;;18.00;90.00;;;;;;5005519;28;20441;-83
2022/09/03 01:33:19;;;;;;;1.30;1.20;;;18.00;90.30;;;;;;5013254;28;20453;-85
2022/09/03 01:36:22;;;;;;;1.80;1.20;;;18.00;90.10;;;;;;4994920;28;20477;-84
2022/09/03 01:38:57;;;;;;;4.47;1.07;;;18.00;90.50;;;;;;5000795;28;20433;-85
2022/09/03 01:42:17;;;;;;;1.63;1.17;;;17.90;90.50;;;;;;5012694;28;20432;-84
2022/09/03 01:45:05;;;;;;;2.00;1.20;;;18.00;90.70;;;;;;4995460;28;20955;-83
2022/09/03 01:48:00;;;;;;;6.77;1.83;;;18.00;90.70;;;;;;5018769;28;20423;-85
2022/09/03 01:50:28;;;;;;;3.73;1.77;;;18.00;90.80;;;;;;5017201;28;20837;-85
2022/09/03 01:53:17;;;;;;;2.33;1.20;;;18.00;90.80;;;;;;5001813;28;20461;-83
2022/09/03 01:56:16;;;;;;;4.07;2.10;;;17.90;90.90;;;;;;5014836;28;20468;-83
2022/09/03 01:58:50;;;;;;;4.10;1.70;;;17.90;91.10;;;;;;5013687;28;20444;-86
2022/09/03 02:01:27;;;;;;;2.10;1.40;;;17.90;91.20;;;;;;5000600;28;20955;-85
2022/09/03 02:03:58;;;;;;;3.37;1.77;;;17.90;91.20;;;;;;5006745;28;20467;-86
2022/09/03 02:06:24;;;;;;;6.73;1.83;;;17.90;91.50;;;;;;4999021;28;20469;-85
2022/09/03 02:08:49;;;;;;;2.23;1.87;;;17.80;92.50;;;;;;5020883;28;20433;-86
2022/09/03 02:11:16;;;;;;;5.37;2.20;;;;;;;;;;4999939;28;20185;-85
2022/09/03 02:13:48;;;;;;;2.40;1.50;;;17.50;92.90;;;;;;4998819;28;20190;-85
2022/09/03 02:16:23;;;;;;;4.93;1.50;;;17.50;93.30;;;;;;5013777;28;20479;-85
2022/09/03 02:18:53;;;;;;;1.73;1.40;;;19.70;93.70;;;;;;4999568;28;20551;-84
2022/09/03 02:21:22;;;;;;;2.60;1.40;;;17.90;92.10;;;;;;5015253;28;20476;-84
2022/09/03 02:23:48;;;;;;;2.90;1.40;;;17.80;92.70;;;;;;5017084;28;20523;-84
2022/09/03 02:26:23;;;;;;;1.73;1.57;;;17.90;92.10;;;;;;4996902;28;20488;-84
2022/09/03 02:28:50;;;;;;;1.70;1.37;;;17.90;92.10;;;;;;5013753;28;20432;-85
2022/09/03 02:31:16;;;;;;;4.17;1.27;;;17.80;92.00;;;;;;4995369;28;20547;-83
2022/09/03 02:33:45;;;;;;;2.57;1.67;;;17.80;92.20;;;;;;5004460;28;20543;-83
2022/09/03 02:36:13;;;;;;;1.20;1.07;;;17.80;92.20;;;;;;5003014;28;20222;-84
2022/09/03 02:38:42;;;;;;;1.10;1.00;;;17.80;92.30;;;;;;5004262;28;20933;-82
2022/09/03 02:41:07;;;;;;;1.20;1.10;;;17.80;92.40;;;;;;5015936;28;20447;-83
2022/09/03 02:44:01;;;;;;;2.47;1.50;;;17.80;92.40;;;;;;5023193;28;20913;-82
2022/09/03 02:46:43;;;;;;;3.10;1.83;;;17.80;93.00;;;;;;5004277;28;20281;-84
2022/09/03 02:49:09;;;;;;;5.00;1.60;;;17.60;93.70;;;;;;4996042;28;20475;-81
2022/09/03 02:51:37;;;;;;;4.73;1.67;;;18.90;94.20;;;;;;5005391;28;20450;-84
2022/09/03 02:54:03;;;;;;;3.60;1.60;;;17.60;93.40;;;;;;5003901;28;20680;-85
2022/09/03 02:56:29;;;;;;;2.27;1.90;;;17.60;93.40;;;;;;5003556;28;21230;-85
2022/09/03 02:58:55;;;;;;;1.83;1.60;;;17.50;94.50;;;;;;4999597;28;21379;-86
2022/09/03 03:01:20;;;;;;;5.73;1.97;;;17.20;96.40;;;;;;5033302;28;20248;-88
2022/09/03 03:03:46;;;;;;;2.10;1.90;;;;;;;;;;5013512;28;20476;-86
2022/09/03 03:06:13;;;;;;;3.33;1.80;;;16.80;98.50;;;;;;5007634;28;20995;-86
2022/09/03 03:08:38;;;;;;;5.20;1.73;;;16.70;99.90;;;;;;5003833;28;20440;-85
2022/09/03 03:11:04;;;;;;;3.60;2.00;;;16.50;99.90;;;;;;5017020;28;20447;-84
2022/09/03 03:13:31;;;;;;;3.20;1.60;;;;;;;;;;5030512;22;20464;-83
2022/09/03 03:15:58;;;;;;;3.03;2.07;;;16.50;99.90;;;;;;5019252;28;20421;-88
2022/09/03 03:18:24;;;;;;;2.80;1.37;;;16.60;99.90;;;;;;5022246;28;20967;-86
2022/09/03 03:20:50;;;;;;;9.70;1.60;;;16.70;99.90;;;;;;5022190;28;20459;-89
2022/09/03 03:23:15;;;;;;;3.03;1.70;;;16.70;99.90;;;;;;5012904;28;20210;-89
2022/09/03 03:25:41;;;;;;;2.40;2.00;;;17.20;99.90;;;;;;5005411;28;20516;-86
2022/09/03 03:28:07;;;;;;;3.23;1.70;;;16.60;99.90;;;;;;5017905;28;20170;-87
2022/09/03 03:30:35;;;;;;;4.20;1.57;;;16.40;99.90;;;;;;5012543;28;20205;-90
2022/09/03 03:33:01;;;;;;;1.70;1.60;;;16.30;99.90;;;;;;5022240;28;20190;-89
2022/09/03 03:35:27;;;;;;;2.37;1.93;;;16.40;99.90;;;;;;5000860;28;20457;-88
2022/09/03 03:37:52;;;;;;;3.50;2.17;;;16.30;99.90;;;;;;5002958;28;20553;-87
2022/09/03 03:40:19;;;;;;;4.97;1.97;;;16.20;99.90;;;;;;5009470;28;20179;-86
2022/09/03 03:42:44;;;;;;;6.40;2.33;;;16.20;99.90;;;;;;4995238;28;20175;-88
2022/09/03 03:45:10;;;;;;;2.93;2.00;;;16.10;99.90;;;;;;5004089;28;20476;-88
2022/09/03 03:47:36;;;;;;;4.50;1.90;;;16.10;99.90;;;;;;5020184;28;20182;-85
2022/09/03 03:50:02;;;;;;;4.33;1.87;;;16.10;99.90;;;;;;5020453;28;20193;-87
2022/09/03 03:52:28;;;;;;;3.43;1.90;;;16.20;99.90;;;;;;5022561;28;20635;-86
2022/09/03 03:54:54;;;;;;;3.63;2.43;;;16.20;99.90;;;;;;5021961;28;20512;-87
2022/09/03 03:57:20;;;;;;;4.73;1.90;;;16.30;99.90;;;;;;5010344;28;20192;-86
2022/09/03 03:59:46;;;;;;;4.20;1.60;;;17.20;99.90;;;;;;5007516;28;20501;-88
2022/09/03 04:02:12;;;;;;;3.00;1.73;;;16.30;99.90;;;;;;5001191;28;20740;-86
2022/09/03 04:04:38;;;;;;;5.90;1.70;;;16.30;99.90;;;;;;5006026;28;20544;-89
2022/09/03 04:07:04;;;;;;;2.10;1.60;;;;;;;;;;5009396;28;20481;-88
2022/09/03 04:09:29;;;;;;;3.50;2.00;;;16.30;99.90;;;;;;5004581;28;20179;-86
2022/09/03 04:11:58;;;;;;;4.50;1.63;;;16.40;99.90;;;;;;5010044;28;20441;-87
2022/09/03 04:14:25;;;;;;;3.37;2.40;;;18.00;99.90;;;;;;5008274;28;20199;-84
2022/09/03 04:16:50;;;;;;;5.50;1.67;;;16.50;99.90;;;;;;4997506;28;20843;-87
2022/09/03 04:19:16;;;;;;;7.13;1.43;;;16.50;99.90;;;;;;4997280;28;20397;-87
2022/09/03 04:21:43;;;;;;;5.30;1.73;;;16.50;99.90;;;;;;4997888;28;20179;-85
2022/09/03 04:24:09;;;;;;;2.40;1.80;;;16.40;99.90;;;;;;5010181;28;20543;-83
2022/09/03 04:26:35;;;;;;;3.33;1.93;;;16.40;99.90;;;;;;5000360;28;20468;-87
2022/09/03 04:29:06;;;;;;;2.33;1.43;;;16.50;99.90;;;;;;5000764;28;20497;-86
2022/09/03 04:31:33;;;;;;;4.50;2.00;;;16.70;99.90;;;;;;5000932;28;20423;-85
2022/09/03 04:33:59;;;;;;;2.53;1.90;;;16.80;99.90;;;;;;5018183;28;20469;-86
2022/09/03 04:36:27;;;;;;;4.07;1.80;;;16.80;99.90;;;;;;5000240;28;20428;-87
2022/09/03 04:38:54;;;;;;;6.60;2.00;;;16.80;99.90;;;;;;5000580;28;20478;-85
2022/09/03 04:41:26;;;;;;;3.30;1.80;;;16.80;99.90;;;;;;5000805;28;20449;-87
2022/09/03 04:43:53;;;;;;;6.40;1.70;;;16.80;99.90;;;;;;5019664;28;20464;-90
2022/09/03 04:46:20;;;;;;;3.47;1.73;;;16.70;99.90;;;;;;5000543;28;20519;-85
2022/09/03 04:48:49;;;;;;;3.70;1.93;;;16.80;99.90;;;;;;5016706;28;20457;-85
2022/09/03 04:51:17;;;;;;;4.07;1.50;;;17.00;99.90;;;;;;5002343;28;21280;-83
2022/09/03 04:53:45;;;;;;;4.60;1.40;;;16.60;99.90;;;;;;4980371;28;20461;-83
2022/09/03 04:56:17;;;;;;;2.60;2.30;;;16.70;99.90;;;;;;4993219;28;20445;-88
2022/09/03 04:58:43;;;;;;;2.20;1.80;;;16.70;99.90;;;;;;5002645;28;20409;-87
2022/09/03 05:01:10;;;;;;;4.93;2.10;;;16.80;99.90;;;;;;5005742;28;20406;-87
2022/09/03 05:03:36;;;;;;;2.53;1.47;;;17.00;99.90;;;;;;5003007;28;20809;-87
2022/09/03 05:06:04;;;;;;;6.07;2.70;;;17.20;99.90;;;;;;5004003;28;20422;-83
2022/09/03 05:08:30;;;;;;;3.23;1.80;;;17.20;99.90;;;;;;5002745;28;20543;-84
2022/09/03 05:11:00;;;;;;;3.67;1.43;;;17.30;99.90;;;;;;5002121;28;20437;-86
2022/09/03 05:13:27;;;;;;;3.20;2.03;;;17.40;99.90;;;;;;5000040;28;20461;-89
2022/09/03 05:15:57;;;;;;;3.13;1.60;;;17.30;99.90;;;;;;5012805;28;20469;-89
2022/09/03 05:18:23;;;;;;;5.83;2.07;;;17.20;99.90;;;;;;5000802;28;20527;-88
2022/09/03 05:20:57;;;;;;;3.03;2.03;;;16.90;99.90;;;;;;4994462;28;20734;-87
2022/09/03 05:23:24;;;;;;;6.40;1.87;;;16.90;99.90;;;;;;5011363;28;20604;-87
2022/09/03 05:25:57;;;;;;;2.00;1.70;;;16.80;99.90;;;;;;5014935;28;20421;-87
2022/09/03 05:28:26;;;;;;;2.27;2.07;;;17.00;99.90;;;;;;5001852;28;20804;-88
2022/09/03 05:31:08;;;;;;;6.67;2.10;;;17.60;99.90;;;;;;5010934;28;20545;-87
2022/09/03 05:33:47;;;;;;;3.30;2.13;;;17.50;99.90;;;;;;5012363;28;20465;-87
2022/09/03 05:36:18;;;;;;;6.40;1.97;;;17.90;99.90;;;;;;5019958;28;20437;-88
2022/09/03 05:38:47;;;;;;;3.97;2.17;;;17.80;99.90;;;;;;4987529;28;20421;-88
2022/09/03 05:41:17;;;;;;;1.90;1.80;;;17.10;99.90;;;;;;5021382;28;20418;-90
2022/09/03 05:44:00;;;;;;;5.90;2.40;;;17.10;99.90;;;;;;5003925;28;20853;-89
2022/09/03 05:46:31;;;;;;;2.47;1.70;;;17.10;99.90;;;;;;5004788;28;20508;-86
2022/09/03 05:49:01;;;;;;;2.97;1.80;;;19.20;99.90;;;;;;5004782;28;20405;-87
2022/09/03 05:51:27;;;;;;;20.90;4.03;;;18.90;99.90;;;;;;4989158;28;20434;-89
2022/09/03 05:53:54;;;;;;;2.93;1.80;;;18.20;99.90;;;;;;5017842;28;20517;-89
2022/09/03 05:56:21;;;;;;;4.03;1.87;;;18.40;99.90;;;;;;5018326;28;20944;-87
2022/09/03 05:58:49;;;;;;;7.37;1.90;;;18.80;99.90;;;;;;5001160;28;20425;-89
2022/09/03 06:01:23;;;;;;;3.03;1.80;;;18.80;99.90;;;;;;5017878;28;20429;-88
2022/09/03 06:04:00;;;;;;;8.10;2.47;;;19.70;99.90;;;;;;5016612;28;20540;-89
2022/09/03 06:06:28;;;;;;;3.90;2.10;;;20.60;99.90;;;;;;5012824;28;20425;-88
2022/09/03 06:08:59;;;;;;;3.70;1.73;;;23.10;99.90;;;;;;5000438;28;20452;-90
2022/09/03 06:11:26;;;;;;;4.73;1.70;;;20.80;99.90;;;;;;5000900;28;20775;-91
2022/09/03 06:13:56;;;;;;;5.43;2.00;;;20.80;99.90;;;;;;4999397;28;20449;-88
2022/09/03 06:16:22;;;;;;;3.53;1.60;;;21.30;99.90;;;;;;4998869;28;20484;-88
2022/09/03 06:18:48;;;;;;;3.37;1.70;;;22.50;98.60;;;;;;4999457;28;20406;-87
2022/09/03 06:21:14;;;;;;;4.20;1.77;;;;;;;;;;5000111;28;20213;-88
2022/09/03 06:23:40;;;;;;;3.50;1.77;;;21.80;96.00;;;;;;5017831;28;21034;-87
2022/09/03 06:26:11;;;;;;;3.30;2.00;;;21.80;96.30;;;;;;5001028;28;20771;-87
2022/09/03 06:28:42;;;;;;;4.37;2.27;;;21.80;96.20;;;;;;4999827;28;20827;-88
2022/09/03 06:31:13;;;;;;;3.13;1.83;;;22.00;96.30;;;;;;5000117;28;20440;-89
2022/09/03 06:33:41;;;;;;;6.50;1.90;;;;;;;;;;4991209;28;20820;-84
2022/09/03 06:36:09;;;;;;;4.97;2.37;;;21.90;95.70;;;;;;4983219;28;20873;-88
2022/09/03 06:38:35;;;;;;;9.23;1.97;;;21.70;95.60;;;;;;4997055;28;20444;-87
2022/09/03 06:41:10;;;;;;;2.07;1.83;;;21.40;96.60;;;;;;5026267;28;20405;-87
2022/09/03 06:43:41;;;;;;;2.03;1.70;;;21.00;97.40;;;;;;5021491;28;20463;-89
2022/09/03 06:46:14;;;;;;;5.80;2.33;;;20.80;98.10;;;;;;5005464;28;20808;-89
2022/09/03 06:48:59;;;;;;;6.23;1.73;;;20.70;98.30;;;;;;4987903;28;20430;-88
2022/09/03 06:51:26;;;;;;;3.13;1.53;;;20.50;99.40;;;;;;5015021;28;20434;-88
2022/09/03 06:53:58;;;;;;;4.50;1.90;;;20.50;99.80;;;;;;4985235;28;20545;-87
2022/09/03 06:56:27;;;;;;;2.80;2.20;;;20.20;99.90;;;;;;5009410;28;20437;-89
2022/09/03 06:58:57;;;;;;;2.13;1.93;;;20.30;99.90;;;;;;4993844;28;20529;-85
2022/09/03 07:01:25;;;;;;;3.30;2.10;;;20.50;99.60;;;;;;4998953;28;20441;-86
2022/09/03 07:03:56;;;;;;;5.23;2.20;;;20.60;99.30;;;;;;4991234;28;20560;-83
2022/09/03 07:06:23;;;;;;;2.60;1.90;;;20.50;98.90;;;;;;4988293;28;20836;-84
2022/09/03 07:08:49;;;;;;;2.17;1.60;;;20.40;99.80;;;;;;4983922;28;20464;-83
2022/09/03 07:11:18;;;;;;;5.17;2.20;;;20.20;99.80;;;;;;4984655;28;20488;-84
2022/09/03 07:13:46;;;;;;;5.70;1.73;;;20.20;99.90;;;;;;4989070;28;20221;-83
2022/09/03 07:16:20;;;;;;;5.17;2.77;;;20.40;99.90;;;;;;4975779;28;20437;-84
2022/09/03 07:18:47;;;;;;;2.50;1.83;;;20.80;99.70;;;;;;4991768;28;20528;-87
2022/09/03 07:21:15;;;;;;;7.77;2.87;;;20.90;98.90;;;;;;5002511;28;21612;-83
2022/09/03 07:23:41;;;;;;;7.50;3.00;;;20.80;98.90;;;;;;4995206;28;20489;-86
2022/09/03 07:26:12;;;;;;;4.43;2.20;;;20.90;99.80;;;;;;4995222;28;21053;-89
2022/09/03 07:28:40;;;;;;;10.73;2.77;;;20.90;99.90;;;;;;4990575;28;20445;-87
2022/09/03 07:31:18;;;;;;;4.20;2.80;;;20.40;99.90;;;;;;5008670;28;20457;-85
2022/09/03 07:33:45;;;;;;;5.20;2.50;;;20.30;99.90;;;;;;5008935;28;20461;-87
2022/09/03 07:36:15;;;;;;;6.43;2.73;;;20.30;99.90;;;;;;5001258;28;20468;-86
2022/09/03 07:38:44;;;;;;;6.80;3.37;;;20.30;99.90;;;;;;5001632;28;20458;-85
2022/09/03 07:41:12;;;;;;;4.27;3.00;;;20.00;99.90;;;;;;5002542;28;20448;-83
2022/09/03 07:43:42;;;;;;;4.97;3.03;;;19.90;99.90;;;;;;5013187;28;20460;-86
2022/09/03 07:46:11;;;;;;;8.30;2.60;;;20.20;99.90;;;;;;5002293;28;20856;-88
2022/09/03 07:48:41;;;;;;;8.37;3.07;;;20.30;99.90;;;;;;4990470;28;20440;-86
2022/09/03 07:51:08;;;;;;;5.23;3.20;;;20.90;99.90;;;;;;5001813;28;20582;-85
2022/09/03 07:53:34;;;;;;;5.40;2.73;;;20.90;99.90;;;;;;4997882;28;20457;-82
2022/09/03 07:56:01;;;;;;;3.40;2.63;;;20.90;99.90;;;;;;5002254;28;20512;-84
2022/09/03 07:58:31;;;;;;;5.47;2.77;;;21.10;99.90;;;;;;5001613;28;20453;-89
2022/09/03 08:00:57;;;;;;;5.03;2.13;;;21.70;99.90;;;;;;4990599;28;20442;-88
2022/09/03 08:03:23;;;;;;;3.67;2.87;;;;;;;;;;4998281;28;21015;-89
2022/09/03 08:05:49;;;;;;;2.50;2.10;;;23.00;99.10;;;;;;5008145;28;20429;-90
2022/09/03 08:08:16;;;;;;;5.47;2.60;;;;;;;;;;5004294;28;20528;-90
2022/09/03 08:10:43;;;;;;;2.90;2.70;;;;;;;;;;5019673;28;20186;-88
2022/09/03 08:13:09;;;;;;;4.00;2.20;;;;;;;;;;5007006;28;20524;-90
2022/09/03 08:15:39;;;;;;;6.20;3.00;;;29.30;79.90;;;;;;5013684;28;20419;-90
2022/09/03 08:18:05;;;;;;;6.17;2.40;;;30.70;76.90;;;;;;4997644;28;20413;-89
2022/09/03 08:20:31;;;;;;;4.97;2.60;;;;;;;;;;5007206;28;20506;-91
2022/09/03 08:23:01;;;;;;;9.27;2.60;;;27.50;73.90;;;;;;5005966;28;20418;-88
2022/09/03 08:25:27;;;;;;;5.87;2.73;;;;;;;;;;5005598;28;20544;-89
2022/09/03 08:27:53;;;;;;;4.33;2.40;;;;;;;;;;5005168;28;20433;-89
2022/09/03 08:30:20;;;;;;;4.33;2.43;;;;;;;;;;5004578;28;20872;-89
2022/09/03 08:32:46;;;;;;;3.53;2.63;;;25.50;79.50;;;;;;5004833;28;20431;-90
2022/09/03 08:35:12;;;;;;;7.63;2.70;;;;;;;;;;5022659;28;20514;-90
2022/09/03 08:37:42;;;;;;;2.97;2.63;;;24.80;82.80;;;;;;5005379;28;20433;-90
2022/09/03 08:40:08;;;;;;;5.70;2.67;;;24.00;85.50;;;;;;5022418;28;20428;-89
2022/09/03 08:43:05;;;;;;;4.87;3.10;;;23.60;88.80;;;;;;5004084;28;20922;-88
2022/09/03 08:45:35;;;;;;;5.40;2.57;;;23.40;90.60;;;;;;4986377;28;20516;-88
2022/09/03 08:48:19;;;;;;;3.47;2.60;;;23.20;91.80;;;;;;5002852;28;21016;-88
2022/09/03 08:50:50;;;;;;;3.60;2.43;;;23.50;91.30;;;;;;5004174;28;20517;-89
2022/09/03 08:53:30;;;;;;;4.20;2.60;;;23.80;90.90;;;;;;5022486;28;20490;-87
2022/09/03 08:56:06;;;;;;;2.80;2.43;;;23.10;91.60;;;;;;5022976;28;20423;-88
2022/09/03 08:58:37;;;;;;;4.20;2.53;;;23.00;92.30;;;;;;5023291;28;20453;-89
2022/09/03 09:01:10;;;;;;;5.47;4.33;;;23.10;93.30;;;;;;5023392;28;20436;-87
2022/09/03 09:03:57;;;;;;;5.63;2.43;;;22.80;93.60;;;;;;5024400;28;20491;-87
2022/09/03 09:06:37;;;;;;;3.30;3.00;;;22.80;94.50;;;;;;5023799;28;20423;-90
2022/09/03 09:09:18;;;;;;;4.20;2.40;;;22.70;94.90;;;;;;5016895;28;20425;-88
2022/09/03 09:12:21;;;;;;;3.53;2.50;;;22.60;95.20;;;;;;5021223;28;20425;-90
2022/09/03 09:14:54;;;;;;;6.47;2.77;;;22.10;96.60;;;;;;5007524;28;20464;-88
2022/09/03 09:17:26;;;;;;;5.07;2.20;;;22.00;97.60;;;;;;5008345;28;20464;-87
2022/09/03 09:20:05;;;;;;;6.00;2.50;;;22.70;98.00;;;;;;4999681;28;20433;-86
2022/09/03 09:22:45;;;;;;;3.90;2.40;;;23.20;96.90;;;;;;4993108;28;20437;-89
2022/09/03 09:25:15;;;;;;;4.40;2.83;;;23.50;96.60;;;;;;4986043;28;20456;-86
2022/09/03 09:27:57;;;;;;;3.87;3.13;;;23.50;96.30;;;;;;5002430;28;20417;-86
2022/09/03 09:30:22;;;;;;;3.27;2.97;;;23.10;96.70;;;;;;4990592;28;20512;-87
2022/09/03 09:32:48;;;;;;;4.63;2.60;;;22.80;97.60;;;;;;5000943;28;20534;-83
2022/09/03 09:35:15;;;;;;;4.77;2.77;;;22.50;97.80;;;;;;5000845;28;20175;-86
2022/09/03 09:37:57;;;;;;;8.20;4.17;;;22.50;98.60;;;;;;5005369;28;20796;-84
2022/09/03 09:40:32;;;;;;;3.80;3.03;;;22.50;99.20;;;;;;5004544;28;20495;-86
2022/09/03 09:43:14;;;;;;;4.13;2.87;;;24.70;97.40;;;;;;5003226;28;20433;-84
2022/09/03 09:45:43;;;;;;;3.40;2.63;;;24.90;97.30;;;;;;5003955;28;20433;-87
2022/09/03 09:48:21;;;;;;;5.27;3.40;;;25.50;95.50;;;;;;4985641;28;21041;-82
2022/09/03 09:50:47;;;;;;;5.93;4.50;;;25.80;94.40;;;;;;5003504;28;20433;-85
2022/09/03 09:53:16;;;;;;;5.90;3.33;;;25.90;93.80;;;;;;4992033;28;20560;-86
2022/09/03 09:55:54;;;;;;;3.60;3.00;;;25.70;94.20;;;;;;4987761;28;20183;-85
2022/09/03 09:58:22;;;;;;;3.70;3.40;;;25.60;94.60;;;;;;5002733;28;20509;-85
2022/09/03 10:01:11;;;;;;;4.27;3.80;;;25.50;95.20;;;;;;4998647;28;20438;-84
2022/09/03 10:03:55;;;;;;;4.27;3.27;;;25.70;94.60;;;;;;4979518;28;20493;-87
2022/09/03 10:09:20;;;;;;;3.70;3.00;;;27.50;93.20;;;;;;4998742;28;20443;-81
2022/09/03 10:12:04;;;;;;;3.07;2.77;;;28.90;89.50;;;;;;4979387;28;20443;-85
2022/09/03 10:14:40;;;;;;;3.77;2.83;;;28.50;85.70;;;;;;5007506;22;20475;-89
2022/09/03 10:17:23;;;;;;;3.10;2.80;;;28.50;87.40;;;;;;4980037;28;21207;-88
2022/09/03 10:20:29;;;;;;;3.73;3.20;;;28.00;86.30;;;;;;4999865;28;20433;-88
2022/09/03 10:23:04;;;;;;;7.27;3.30;;;27.50;89.20;;;;;;4987056;28;20471;-87
2022/09/03 10:25:52;;;;;;;3.50;3.10;;;26.70;90.70;;;;;;4973607;28;20443;-86
2022/09/03 10:28:22;;;;;;;3.57;3.17;;;26.10;91.50;;;;;;4988891;28;20769;-88
2022/09/03 10:31:17;;;;;;;3.47;3.10;;;26.30;92.10;;;;;;4992777;28;20432;-87
2022/09/03 10:33:54;;;;;;;5.07;3.00;;;26.20;91.50;;;;;;4982167;28;20836;-84
2022/09/03 10:36:27;;;;;;;3.83;3.00;;;26.10;91.60;;;;;;4982502;28;20710;-87
2022/09/03 10:39:21;;;;;;;3.70;2.47;;;26.00;92.40;;;;;;4994094;28;20546;-84
2022/09/03 10:42:05;;;;;;;4.07;3.30;;;26.60;91.50;;;;;;4993539;28;20532;-86
2022/09/03 10:44:45;;;;;;;4.87;3.80;;;26.60;91.90;;;;;;4996393;28;20460;-86
2022/09/03 10:47:41;;;;;;;3.27;2.97;;;26.70;91.70;;;;;;5002446;28;20457;-89
2022/09/03 10:50:18;;;;;;;4.13;3.17;;;26.60;91.50;;;;;;4999485;28;21297;-88
2022/09/03 10:53:34;;;;;;;6.23;3.87;;;26.40;91.30;;;;;;4979490;28;20441;-86
2022/09/03 10:56:27;;;;;;;8.70;3.60;;;26.20;91.60;;;;;;4940996;28;20470;-86
2022/09/03 10:59:02;;;;;;;4.73;2.50;;;25.50;91.90;;;;;;4996017;28;21297;-87
2022/09/03 11:01:53;;;;;;;3.20;2.90;;;25.10;93.20;;;;;;4986897;28;20445;-85
2022/09/03 11:04:31;;;;;;;6.50;3.00;;;25.10;93.50;;;;;;4980533;28;20469;-87
2022/09/03 11:07:07;;;;;;;3.43;3.13;;;25.30;93.00;;;;;;4994313;28;21174;-86
2022/09/03 11:10:15;;;;;;;6.80;3.23;;;25.30;92.10;;;;;;4990815;28;21233;-87
2022/09/03 11:12:56;;;;;;;10.10;3.03;;;25.30;92.70;;;;;;4976468;28;20444;-86
2022/09/03 11:15:34;;;;;;;3.53;2.97;;;25.70;92.50;;;;;;4983675;28;20977;-86
2022/09/03 11:18:15;;;;;;;3.87;3.40;;;25.70;92.80;;;;;;4984803;28;20471;-85
2022/09/03 11:20:42;;;;;;;3.47;3.07;;;26.00;91.60;;;;;;4976617;28;20452;-87
2022/09/03 11:23:11;;;;;;;3.73;3.10;;;26.10;91.30;;;;;;4988283;28;20450;-86
2022/09/03 11:25:43;;;;;;;2.90;2.60;;;26.20;91.00;;;;;;4977994;28;20464;-84
2022/09/03 11:28:44;;;;;;;9.53;3.20;;;26.50;90.70;;;;;;4985645;28;20570;-86
2022/09/03 11:31:36;;;;;;;3.20;2.90;;;26.60;89.00;;;;;;4986351;28;20430;-85
2022/09/03 11:34:32;;;;;;;4.53;2.60;;;26.70;89.20;;;;;;4973628;28;20438;-86
2022/09/03 11:37:17;;;;;;;6.40;3.70;;;26.80;87.60;;;;;;4963326;28;20464;-86
2022/09/03 11:39:51;;;;;;;3.07;2.87;;;26.80;87.50;;;;;;4991181;28;20444;-87
2022/09/03 11:42:38;;;;;;;3.60;3.07;;;26.80;88.00;;;;;;4989095;28;21106;-87
2022/09/03 11:45:33;;;;;;;3.70;2.93;;;26.90;87.70;;;;;;4983875;28;20476;-86
2022/09/03 11:47:59;;;;;;;7.33;2.90;;;27.10;87.30;;;;;;4969189;28;20708;-86
2022/09/03 11:50:31;;;;;;;3.23;2.93;;;26.90;87.10;;;;;;4991909;28;21219;-85
2022/09/03 11:53:24;;;;;;;4.50;2.73;;;26.50;87.50;;;;;;4988441;28;20990;-87
2022/09/03 11:56:06;;;;;;;4.10;3.33;;;25.80;89.60;;;;;;4973071;28;20469;-85
2022/09/03 11:58:37;;;;;;;3.20;2.83;;;25.60;90.30;;;;;;4969165;28;20527;-87
2022/09/03 12:01:10;;;;;;;7.50;3.00;;;25.40;90.80;;;;;;4966825;28;20434;-83
2022/09/03 12:03:52;;;;;;;5.83;3.10;;;24.80;91.70;;;;;;4989246;28;20504;-86
2022/09/03 12:06:33;;;;;;;8.47;4.10;;;24.70;92.50;;;;;;4997017;28;20461;-86
2022/09/03 12:09:05;;;;;;;5.60;3.30;;;24.50;93.30;;;;;;4984930;28;20532;-86
2022/09/03 12:12:07;;;;;;;3.30;2.80;;;24.40;93.70;;;;;;4975812;28;20451;-87
2022/09/03 12:14:39;;;;;;;4.60;3.40;;;24.20;93.90;;;;;;4965585;28;20446;-86
2022/09/03 12:17:14;;;;;;;3.63;3.33;;;24.10;94.90;;;;;;4984865;28;20545;-85
2022/09/03 12:19:54;;;;;;;3.83;2.80;;;23.90;95.30;;;;;;5006699;28;20440;-87
2022/09/03 12:22:22;;;;;;;3.57;3.27;;;23.60;95.60;;;;;;4981810;28;20438;-86
2022/09/03 12:24:49;;;;;;;6.27;3.67;;;23.60;96.10;;;;;;4989854;28;20473;-83
2022/09/03 12:27:23;;;;;;;3.60;3.30;;;23.70;96.70;;;;;;4985830;28;20462;-85
2022/09/03 12:29:58;;;;;;;3.50;2.60;;;23.90;99.40;;;;;;4988648;28;20795;-89
2022/09/03 12:32:35;;;;;;;2.83;2.60;;;23.60;99.90;;;;;;4982696;28;20967;-87
2022/09/03 12:35:11;;;;;;;7.10;2.93;;;23.70;99.90;;;;;;4996387;28;20441;-84
2022/09/03 12:37:36;;;;;;;3.50;2.87;;;23.70;99.90;;;;;;4992028;28;20468;-85
2022/09/03 12:40:02;;;;;;;3.23;2.93;;;23.60;99.90;;;;;;4990495;28;20434;-83
2022/09/03 12:42:30;;;;;;;6.13;3.50;;;23.60;99.90;;;;;;4984808;28;20187;-89
2022/09/03 12:45:05;;;;;;;5.20;3.10;;;23.40;99.90;;;;;;4990285;28;20210;-87
2022/09/03 12:47:38;;;;;;;3.17;2.80;;;23.50;99.90;;;;;;4982846;28;20437;-84
2022/09/03 12:50:10;;;;;;;3.43;3.00;;;23.70;99.90;;;;;;4995827;28;20442;-88
2022/09/03 12:52:37;;;;;;;8.20;2.80;;;23.60;99.90;;;;;;5002603;28;20464;-86
2022/09/03 12:55:28;;;;;;;3.90;2.87;;;23.80;99.90;;;;;;4997584;28;20438;-86
2022/09/03 12:58:06;;;;;;;5.50;3.10;;;24.00;99.90;;;;;;4992125;28;20458;-88
2022/09/03 13:00:36;;;;;;;4.93;3.57;;;24.60;99.90;;;;;;4977363;28;21040;-88
2022/09/03 13:03:08;;;;;;;3.10;2.30;;;25.00;99.90;;;;;;4980772;28;20445;-88
2022/09/03 13:05:53;;;;;;;4.47;3.00;;;25.50;99.90;;;;;;4996782;28;20445;-87
2022/09/03 13:08:26;;;;;;;3.17;2.67;;;25.80;99.20;;;;;;4994600;28;20481;-86
2022/09/03 13:11:03;;;;;;;4.13;2.60;;;26.20;96.90;;;;;;4991917;28;20431;-86
2022/09/03 13:13:31;;;;;;;3.60;2.67;;;26.20;96.10;;;;;;4980323;28;20437;-86
2022/09/03 13:16:35;;;;;;;3.53;3.07;;;25.10;97.50;;;;;;4989626;28;20466;-87
2022/09/03 13:19:28;;;;;;;4.70;3.50;;;24.40;99.90;;;;;;4985262;28;20513;-87
2022/09/03 13:22:14;;;;;;;3.20;2.70;;;23.70;99.90;;;;;;4983392;28;20445;-86
2022/09/03 13:25:12;;;;;;;9.33;4.30;;;22.60;99.90;;;;;;4992896;28;21027;-87
2022/09/03 13:28:02;;;;;;;7.20;3.90;;;21.90;99.90;;;;;;4986457;28;20453;-87
2022/09/03 13:30:46;;;;;;;10.87;4.10;;;21.50;99.90;;;;;;4973990;28;20461;-86